createdAt,value
2022-09-20T00:01:32.504Z,100.00
2022-09-20T00:04:01.418Z,100.00
2022-09-20T00:06:30.044Z,100.00
2022-09-20T00:08:57.286Z,100.00
2022-09-20T00:11:26.546Z,100.00
2022-09-20T00:13:56.371Z,100.00
2022-09-20T00:16:32.377Z,100.00
2022-09-20T00:19:01.252Z,100.00
2022-09-20T00:21:29.961Z,100.00
2022-09-20T00:23:57.647Z,100.00
2022-09-20T00:26:25.548Z,100.00
2022-09-20T00:28:52.285Z,100.00
2022-09-20T00:31:19.561Z,100.00
2022-09-20T00:34:04.844Z,100.00
2022-09-20T00:36:31.661Z,100.00
2022-09-20T00:39:00.188Z,100.00
2022-09-20T00:41:27.029Z,100.00
2022-09-20T00:43:54.581Z,100.00
2022-09-20T00:46:24.479Z,100.00
2022-09-20T00:48:59.075Z,100.00
2022-09-20T00:51:31.387Z,100.00
2022-09-20T00:54:02.101Z,100.00
2022-09-20T00:56:32.886Z,100.00
2022-09-20T00:59:34.253Z,100.00
2022-09-20T01:02:12.401Z,100.00
2022-09-20T01:04:51.245Z,100.00
2022-09-20T01:10:58.341Z,100.00
2022-09-20T01:13:24.925Z,100.00
2022-09-20T01:16:09.214Z,100.00
2022-09-20T01:18:59.162Z,100.00
2022-09-20T01:21:52.743Z,100.00
2022-09-20T01:24:47.570Z,100.00
2022-09-20T01:31:04.549Z,100.00
2022-09-20T01:33:44.901Z,100.00
2022-09-20T01:36:17.070Z,100.00
2022-09-20T01:38:52.483Z,100.00
2022-09-20T01:41:28.349Z,100.00
2022-09-20T01:44:31.856Z,100.00
2022-09-20T01:47:09.120Z,100.00
2022-09-20T01:49:59.023Z,100.00
2022-09-20T01:52:57.566Z,100.00
2022-09-20T01:55:45.257Z,100.00
2022-09-20T01:58:20.725Z,100.00
2022-09-20T02:01:05.522Z,100.00
2022-09-20T02:03:43.902Z,100.00
2022-09-20T02:06:41.017Z,100.00
2022-09-20T02:09:26.588Z,100.00
2022-09-20T02:12:30.510Z,100.00
2022-09-20T02:15:48.500Z,100.00
2022-09-20T02:18:15.981Z,100.00
2022-09-20T02:20:52.736Z,100.00
2022-09-20T02:23:42.391Z,100.00
2022-09-20T02:27:00.610Z,100.00
2022-09-20T02:29:45.046Z,100.00
2022-09-20T02:32:46.620Z,100.00
2022-09-20T02:35:25.704Z,100.00
2022-09-20T02:37:58.616Z,100.00
2022-09-20T02:40:40.333Z,100.00
2022-09-20T02:43:25.451Z,100.00
2022-09-20T02:46:11.656Z,100.00
2022-09-20T02:49:16.919Z,100.00
2022-09-20T02:51:58.255Z,100.00
2022-09-20T02:54:42.930Z,100.00
2022-09-20T02:57:33.650Z,100.00
2022-09-20T03:00:38.566Z,100.00
2022-09-20T03:03:18.604Z,100.00
2022-09-20T03:06:20.968Z,100.00
2022-09-20T03:09:11.066Z,100.00
2022-09-20T03:11:44.265Z,100.00
2022-09-20T03:14:22.958Z,100.00
2022-09-20T03:16:59.664Z,100.00
2022-09-20T03:19:35.173Z,100.00
2022-09-20T03:22:22.946Z,100.00
2022-09-20T03:25:07.915Z,100.00
2022-09-20T03:28:06.674Z,100.00
2022-09-20T03:30:51.636Z,100.00
2022-09-20T03:33:36.387Z,100.00
2022-09-20T03:36:23.004Z,100.00
2022-09-20T03:39:17.048Z,100.00
2022-09-20T03:41:53.552Z,100.00
2022-09-20T03:44:38.803Z,100.00
2022-09-20T03:47:30.651Z,100.00
2022-09-20T03:50:37.469Z,100.00
2022-09-20T03:53:26.001Z,100.00
2022-09-20T03:56:14.074Z,100.00
2022-09-20T03:59:02.807Z,100.00
2022-09-20T04:01:49.408Z,100.00
2022-09-20T04:04:22.075Z,100.00
2022-09-20T04:07:19.579Z,100.00
2022-09-20T04:10:05.079Z,100.00
2022-09-20T04:12:57.104Z,100.00
2022-09-20T04:15:38.281Z,100.00
2022-09-20T04:18:16.897Z,100.00
2022-09-20T04:21:00.133Z,100.00
2022-09-20T04:24:05.827Z,100.00
2022-09-20T04:26:39.057Z,100.00
2022-09-20T04:29:08.577Z,100.00
2022-09-20T04:32:00.116Z,100.00
2022-09-20T04:34:52.958Z,100.00
2022-09-20T04:37:26.608Z,100.00
2022-09-20T04:40:01.725Z,100.00
2022-09-20T04:42:52.511Z,100.00
2022-09-20T04:45:34.082Z,100.00
2022-09-20T04:48:38.174Z,100.00
2022-09-20T04:51:22.903Z,100.00
2022-09-20T04:54:34.877Z,100.00
2022-09-20T04:57:46.393Z,100.00
2022-09-20T05:00:20.485Z,100.00
2022-09-20T05:02:59.162Z,100.00
2022-09-20T05:05:46.096Z,100.00
2022-09-20T05:08:34.002Z,100.00
2022-09-20T05:11:12.702Z,100.00
2022-09-20T05:13:42.191Z,100.00
2022-09-20T05:16:21.786Z,100.00
2022-09-20T05:18:56.869Z,100.00
2022-09-20T05:22:31.330Z,100.00
2022-09-20T05:25:07.288Z,100.00
2022-09-20T05:27:43.480Z,100.00
2022-09-20T05:30:48.333Z,100.00
2022-09-20T05:33:15.170Z,100.00
2022-09-20T05:35:56.856Z,100.00
2022-09-20T05:38:32.545Z,100.00
2022-09-20T05:41:24.385Z,100.00
2022-09-20T05:44:16.230Z,100.00
2022-09-20T05:47:10.675Z,100.00
2022-09-20T05:50:15.543Z,100.00
2022-09-20T05:52:52.949Z,100.00
2022-09-20T05:56:01.037Z,100.00
2022-09-20T05:58:58.570Z,100.00
2022-09-20T06:01:26.918Z,100.00
2022-09-20T06:03:59.553Z,100.00
2022-09-20T06:06:39.715Z,100.00
2022-09-20T06:09:08.909Z,100.00
2022-09-20T06:12:17.922Z,100.00
2022-09-20T06:15:15.730Z,100.00
2022-09-20T06:18:15.701Z,100.00
2022-09-20T06:21:20.607Z,100.00
2022-09-20T06:23:47.324Z,100.00
2022-09-20T06:26:17.355Z,100.00
2022-09-20T06:28:49.133Z,100.00
2022-09-20T06:31:17.004Z,100.00
2022-09-20T06:33:50.356Z,100.00
2022-09-20T06:36:46.325Z,100.00
2022-09-20T06:39:43.466Z,100.00
2022-09-20T06:42:10.586Z,100.00
2022-09-20T06:44:43.189Z,100.00
2022-09-20T06:47:13.860Z,100.00
2022-09-20T06:49:44.520Z,100.00
2022-09-20T06:52:15.601Z,100.00
2022-09-20T06:54:45.739Z,100.00
2022-09-20T06:57:14.307Z,100.00
2022-09-20T06:59:40.805Z,100.00
2022-09-20T07:02:08.314Z,100.00
2022-09-20T07:04:35.250Z,100.00
2022-09-20T07:07:06.199Z,100.00
2022-09-20T07:09:35.772Z,100.00
2022-09-20T07:12:02.461Z,100.00
2022-09-20T07:14:28.984Z,100.00
2022-09-20T07:16:55.493Z,100.00
2022-09-20T07:19:23.444Z,100.00
2022-09-20T07:21:49.952Z,100.00
2022-09-20T07:24:16.466Z,100.00
2022-09-20T07:27:00.160Z,100.00
2022-09-20T07:29:27.465Z,100.00
2022-09-20T07:31:54.646Z,100.00
2022-09-20T07:34:21.230Z,100.00
2022-09-20T07:36:49.296Z,100.00
2022-09-20T07:39:16.934Z,100.00
2022-09-20T07:41:51.110Z,100.00
2022-09-20T07:44:21.534Z,100.00
2022-09-20T07:46:53.058Z,100.00
2022-09-20T07:49:20.465Z,100.00
2022-09-20T07:51:47.382Z,100.00
2022-09-20T07:54:13.965Z,100.00
2022-09-20T07:56:41.556Z,100.00
2022-09-20T07:59:10.123Z,100.00
2022-09-20T08:01:37.587Z,100.00
2022-09-20T08:04:08.915Z,100.00
2022-09-20T08:06:43.955Z,100.00
2022-09-20T08:09:12.652Z,100.00
2022-09-20T08:11:40.514Z,100.00
2022-09-20T08:14:09.151Z,100.00
2022-09-20T08:16:47.959Z,100.00
2022-09-20T08:19:20.549Z,100.00
2022-09-20T08:21:47.547Z,100.00
2022-09-20T08:24:14.983Z,100.00
2022-09-20T08:26:41.799Z,100.00
2022-09-20T08:29:08.517Z,100.00
2022-09-20T08:31:38.559Z,94.88
2022-09-20T08:34:06.530Z,84.10
2022-09-20T08:36:36.672Z,76.39
2022-09-20T08:41:56.709Z,59.79
2022-09-20T08:44:58.639Z,52.47
2022-09-20T08:47:29.523Z,52.76
2022-09-20T08:49:57.643Z,58.46
2022-09-20T08:52:37.133Z,53.80
2022-09-20T08:55:13.616Z,54.38
2022-09-20T08:57:40.187Z,47.97
2022-09-20T09:00:07.484Z,53.11
2022-09-20T09:02:34.403Z,55.84
2022-09-20T09:05:03.127Z,53.73
2022-09-20T09:07:29.652Z,54.64
2022-09-20T09:09:56.695Z,62.61
2022-09-20T09:12:30.046Z,67.55
2022-09-20T09:15:32.700Z,68.69
2022-09-20T09:17:59.253Z,70.85
2022-09-20T09:20:26.060Z,73.66
2022-09-20T09:23:05.088Z,73.80
2022-09-20T09:25:39.874Z,76.56
2022-09-20T09:28:06.343Z,75.02
2022-09-20T09:30:34.319Z,70.62
2022-09-20T09:33:28.085Z,73.59
2022-09-20T09:36:08.982Z,58.69
2022-09-20T09:38:38.123Z,49.34
2022-09-20T09:41:10.414Z,45.94
2022-09-20T09:43:40.531Z,45.68
2022-09-20T09:46:21.484Z,47.71
2022-09-20T09:49:05.345Z,52.23
2022-09-20T09:51:33.565Z,59.08
2022-09-20T09:54:01.017Z,62.39
2022-09-20T09:56:44.074Z,67.32
2022-09-20T09:59:25.860Z,80.14
2022-09-20T10:02:11.019Z,87.99
2022-09-20T10:04:42.140Z,98.26
2022-09-20T10:07:08.552Z,100.00
2022-09-20T10:09:57.667Z,100.00
2022-09-20T10:12:46.672Z,100.00
2022-09-20T10:15:39.251Z,100.00
2022-09-20T10:18:05.696Z,100.00
2022-09-20T10:20:45.813Z,92.35
2022-09-20T10:24:04.707Z,76.52
2022-09-20T10:26:37.534Z,70.00
2022-09-20T10:29:31.607Z,70.48
2022-09-20T10:32:15.440Z,66.11
2022-09-20T10:34:57.388Z,58.49
2022-09-20T10:37:52.972Z,54.56
2022-09-20T10:41:13.299Z,51.51
2022-09-20T10:43:42.733Z,49.81
2022-09-20T10:46:33.019Z,46.57
2022-09-20T10:49:40.133Z,48.08
2022-09-20T10:52:38.379Z,50.08
2022-09-20T10:55:18.795Z,53.48
2022-09-20T10:58:09.744Z,45.71
2022-09-20T11:01:01.553Z,47.18
2022-09-20T11:04:07.128Z,44.73
2022-09-20T11:07:05.434Z,46.00
2022-09-20T11:09:39.800Z,42.37
2022-09-20T11:12:32.347Z,44.12
2022-09-20T11:15:05.162Z,45.65
2022-09-20T11:17:42.258Z,48.15
2022-09-20T11:20:32.559Z,49.04
2022-09-20T11:23:19.385Z,52.63
2022-09-20T11:25:55.481Z,56.44
2022-09-20T11:28:33.879Z,57.72
2022-09-20T11:31:35.556Z,54.15
2022-09-20T11:34:14.330Z,57.72
2022-09-20T11:36:44.069Z,60.28
2022-09-20T11:39:15.539Z,61.86
2022-09-20T11:41:43.127Z,61.29
2022-09-20T11:44:17.045Z,59.25
2022-09-20T11:46:52.629Z,57.50
2022-09-20T11:49:30.233Z,59.91
2022-09-20T11:52:14.486Z,59.61
2022-09-20T11:55:01.320Z,62.95
2022-09-20T11:57:28.485Z,63.98
2022-09-20T11:59:57.301Z,64.98
2022-09-20T12:02:35.041Z,63.67
2022-09-20T12:05:03.721Z,68.21
2022-09-20T12:07:38.250Z,72.50
2022-09-20T12:10:20.711Z,71.78
2022-09-20T12:12:51.086Z,70.55
2022-09-20T12:15:26.304Z,73.76
2022-09-20T12:17:52.751Z,72.90
2022-09-20T12:20:42.444Z,70.31
2022-09-20T12:23:43.176Z,62.28
2022-09-20T12:26:22.811Z,58.46
2022-09-20T12:28:58.757Z,62.91
2022-09-20T12:31:26.176Z,67.56
2022-09-20T12:33:59.444Z,65.59
2022-09-20T12:36:28.540Z,69.32
2022-09-20T12:39:00.862Z,66.15
2022-09-20T12:41:29.166Z,68.32
2022-09-20T12:44:02.664Z,69.77
2022-09-20T12:46:41.070Z,69.37
2022-09-20T12:49:37.833Z,71.53
2022-09-20T12:52:23.244Z,67.00
2022-09-20T12:54:56.373Z,66.69
2022-09-20T12:57:32.154Z,57.32
2022-09-20T13:00:01.913Z,57.54
2022-09-20T13:02:50.946Z,58.85
2022-09-20T13:05:38.498Z,56.17
2022-09-20T13:08:27.690Z,48.53
2022-09-20T13:11:12.460Z,46.31
2022-09-20T13:13:45.039Z,49.57
2022-09-20T13:16:31.990Z,49.22
2022-09-20T13:19:07.805Z,50.72
2022-09-20T13:21:38.136Z,48.83
2022-09-20T13:24:05.525Z,49.79
2022-09-20T13:26:51.868Z,44.06
2022-09-20T13:29:35.123Z,42.77
2022-09-20T13:32:24.694Z,41.79
2022-09-20T13:35:09.594Z,43.69
2022-09-20T13:37:57.717Z,44.73
2022-09-20T13:40:32.056Z,45.30
2022-09-20T13:43:22.234Z,48.35
2022-09-20T13:45:53.875Z,53.10
2022-09-20T13:48:24.477Z,52.68
2022-09-20T13:50:53.680Z,59.51
2022-09-20T13:53:39.763Z,64.24
2022-09-20T13:56:27.415Z,61.52
2022-09-20T13:58:55.814Z,64.51
2022-09-20T14:01:32.297Z,65.42
2022-09-20T14:04:08.205Z,65.90
2022-09-20T14:06:35.826Z,67.06
2022-09-20T14:09:10.507Z,64.73
2022-09-20T14:11:39.020Z,66.43
2022-09-20T14:14:07.942Z,64.11
2022-09-20T14:16:48.970Z,60.95
2022-09-20T14:19:21.074Z,62.88
2022-09-20T14:21:48.314Z,58.86
2022-09-20T14:24:14.782Z,57.27
2022-09-20T14:26:42.883Z,59.75
2022-09-20T14:29:33.886Z,59.35
2022-09-20T14:32:24.203Z,62.61
2022-09-20T14:34:56.681Z,66.90
2022-09-20T14:37:30.547Z,71.80
2022-09-20T14:39:59.880Z,74.20
2022-09-20T14:42:47.033Z,88.79
2022-09-20T14:45:30.413Z,100.00
2022-09-20T14:48:11.655Z,100.00
2022-09-20T14:50:46.417Z,100.00
2022-09-20T14:53:12.813Z,100.00
2022-09-20T14:56:00.797Z,100.00
2022-09-20T14:58:27.619Z,100.00
2022-09-20T15:00:57.948Z,100.00
2022-09-20T15:03:32.344Z,100.00
2022-09-20T15:05:58.976Z,100.00
2022-09-20T15:08:25.991Z,100.00
2022-09-20T15:10:52.551Z,100.00
2022-09-20T15:13:19.201Z,100.00
2022-09-20T15:15:50.813Z,100.00
2022-09-20T15:18:26.658Z,100.00
2022-09-20T15:20:54.804Z,100.00
2022-09-20T15:23:21.729Z,100.00
2022-09-20T15:25:53.272Z,100.00
2022-09-20T15:28:20.410Z,100.00
2022-09-20T15:30:48.671Z,100.00
2022-09-20T15:33:15.325Z,100.00
2022-09-20T15:35:43.389Z,100.00
2022-09-20T15:38:11.783Z,100.00
2022-09-20T15:40:42.791Z,100.00
2022-09-20T15:43:13.309Z,100.00
2022-09-20T15:45:54.845Z,100.00
2022-09-20T15:48:24.575Z,100.00
2022-09-20T15:51:06.756Z,100.00
2022-09-20T15:53:37.480Z,100.00
2022-09-20T15:56:14.391Z,100.00
2022-09-20T15:58:46.195Z,100.00
2022-09-20T16:01:16.672Z,100.00
2022-09-20T16:03:44.678Z,100.00
2022-09-20T16:06:11.567Z,100.00
2022-09-20T16:08:40.340Z,100.00
2022-09-20T16:11:08.802Z,100.00
2022-09-20T16:13:38.827Z,100.00
2022-09-20T16:16:07.408Z,100.00
2022-09-20T16:18:54.958Z,100.00
2022-09-20T16:21:22.137Z,100.00
2022-09-20T16:23:50.913Z,100.00
2022-09-20T16:26:19.661Z,100.00
2022-09-20T16:28:47.785Z,100.00
2022-09-20T16:31:26.569Z,100.00
2022-09-20T16:33:53.078Z,100.00
2022-09-20T16:36:24.292Z,100.00
2022-09-20T16:38:56.801Z,100.00
2022-09-20T16:41:25.499Z,100.00
2022-09-20T16:43:53.053Z,100.00
2022-09-20T16:46:20.995Z,100.00
2022-09-20T16:48:48.463Z,100.00
2022-09-20T16:51:15.456Z,100.00
2022-09-20T16:53:43.483Z,100.00
2022-09-20T16:56:27.383Z,100.00
2022-09-20T16:58:54.316Z,100.00
2022-09-20T17:01:21.664Z,100.00
2022-09-20T17:03:48.740Z,100.00
2022-09-20T17:06:16.503Z,100.00
2022-09-20T17:08:44.871Z,100.00
2022-09-20T17:11:20.437Z,100.00
2022-09-20T17:13:47.592Z,100.00
2022-09-20T17:16:16.614Z,100.00
2022-09-20T17:18:43.763Z,100.00
2022-09-20T17:21:13.778Z,100.00
2022-09-20T17:23:50.664Z,100.00
2022-09-20T17:26:28.695Z,100.00
2022-09-20T17:28:56.394Z,100.00
2022-09-20T17:31:28.567Z,100.00
2022-09-20T17:33:55.786Z,100.00
2022-09-20T17:36:22.320Z,100.00
2022-09-20T17:38:54.306Z,100.00
2022-09-20T17:41:21.998Z,100.00
2022-09-20T17:43:53.023Z,100.00
2022-09-20T17:46:26.122Z,100.00
2022-09-20T17:48:55.502Z,100.00
2022-09-20T17:51:24.683Z,100.00
2022-09-20T17:53:52.895Z,100.00
2022-09-20T17:56:20.840Z,100.00
2022-09-20T17:58:47.333Z,100.00
2022-09-20T18:01:16.294Z,100.00
2022-09-20T18:03:45.993Z,100.00
2022-09-20T18:06:22.220Z,100.00
2022-09-20T18:08:51.469Z,100.00
2022-09-20T18:11:20.924Z,100.00
2022-09-20T18:13:47.668Z,100.00
2022-09-20T18:16:16.300Z,100.00
2022-09-20T18:18:44.580Z,100.00
2022-09-20T18:21:19.969Z,100.00
2022-09-20T18:23:47.545Z,100.00
2022-09-20T18:26:22.067Z,100.00
2022-09-20T18:29:14.127Z,100.00
2022-09-20T18:31:49.914Z,100.00
2022-09-20T18:34:21.146Z,100.00
2022-09-20T18:36:55.786Z,100.00
2022-09-20T18:39:23.168Z,100.00
2022-09-20T18:41:50.523Z,100.00
2022-09-20T18:44:18.473Z,100.00
2022-09-20T18:46:45.847Z,100.00
2022-09-20T18:49:15.039Z,100.00
2022-09-20T18:51:42.786Z,100.00
2022-09-20T18:54:11.003Z,100.00
2022-09-20T18:56:40.050Z,100.00
2022-09-20T18:59:28.149Z,100.00
2022-09-20T19:02:12.389Z,100.00
2022-09-20T19:05:06.800Z,100.00
2022-09-20T19:07:48.789Z,100.00
2022-09-20T19:10:53.481Z,100.00
2022-09-20T19:13:38.175Z,100.00
2022-09-20T19:16:10.137Z,100.00
2022-09-20T19:18:56.316Z,100.00
2022-09-20T19:21:58.511Z,100.00
2022-09-20T19:25:01.312Z,100.00
2022-09-20T19:27:28.228Z,100.00
2022-09-20T19:29:55.091Z,100.00
2022-09-20T19:32:26.029Z,100.00
2022-09-20T19:35:01.551Z,100.00
2022-09-20T19:37:34.090Z,100.00
2022-09-20T19:40:21.016Z,100.00
2022-09-20T19:43:19.327Z,100.00
2022-09-20T19:46:03.278Z,100.00
2022-09-20T19:48:38.946Z,100.00
2022-09-20T19:51:11.107Z,100.00
2022-09-20T19:53:38.346Z,100.00
2022-09-20T19:56:27.684Z,100.00
2022-09-20T19:58:56.141Z,100.00
2022-09-20T20:01:24.562Z,100.00
2022-09-20T20:03:55.225Z,100.00
2022-09-20T20:06:33.262Z,100.00
2022-09-20T20:09:07.131Z,100.00
2022-09-20T20:11:49.498Z,100.00
2022-09-20T20:14:36.368Z,100.00
2022-09-20T20:17:09.020Z,100.00
2022-09-20T20:20:07.558Z,100.00
2022-09-20T20:22:56.838Z,100.00
2022-09-20T20:26:06.305Z,100.00
2022-09-20T20:28:32.873Z,100.00
2022-09-20T20:31:03.519Z,100.00
2022-09-20T20:33:31.090Z,100.00
2022-09-20T20:36:00.143Z,100.00
2022-09-20T20:38:27.462Z,100.00
2022-09-20T20:41:14.990Z,100.00
2022-09-20T20:43:43.563Z,100.00
2022-09-20T20:46:12.290Z,100.00
2022-09-20T20:48:38.808Z,100.00
2022-09-20T20:51:09.524Z,100.00
2022-09-20T20:53:38.775Z,100.00
2022-09-20T20:56:08.056Z,100.00
2022-09-20T20:58:36.399Z,100.00
2022-09-20T21:01:14.844Z,100.00
2022-09-20T21:03:43.862Z,100.00
2022-09-20T21:06:10.753Z,100.00
2022-09-20T21:08:45.761Z,100.00
2022-09-20T21:11:23.433Z,100.00
2022-09-20T21:13:55.292Z,100.00
2022-09-20T21:16:27.548Z,100.00
2022-09-20T21:18:54.655Z,100.00
2022-09-20T21:21:22.636Z,100.00
2022-09-20T21:23:51.529Z,100.00
2022-09-20T21:26:18.809Z,100.00
2022-09-20T21:28:51.290Z,100.00
2022-09-20T21:31:19.347Z,100.00
2022-09-20T21:33:45.837Z,100.00
2022-09-20T21:36:17.190Z,100.00
2022-09-20T21:38:44.595Z,100.00
2022-09-20T21:41:22.867Z,100.00
2022-09-20T21:43:53.205Z,100.00
2022-09-20T21:46:28.366Z,100.00
2022-09-20T21:48:56.960Z,100.00
2022-09-20T21:51:25.001Z,100.00
2022-09-20T21:53:58.214Z,100.00
2022-09-20T21:56:27.673Z,100.00
2022-09-20T21:58:54.792Z,100.00
2022-09-20T22:01:26.609Z,100.00
2022-09-20T22:04:00.919Z,100.00
2022-09-20T22:06:36.359Z,100.00
2022-09-20T22:09:09.164Z,100.00
2022-09-20T22:11:41.648Z,100.00
2022-09-20T22:14:09.951Z,100.00
2022-09-20T22:16:38.967Z,100.00
2022-09-20T22:19:07.837Z,100.00
2022-09-20T22:21:36.914Z,100.00
2022-09-20T22:24:06.455Z,100.00
2022-09-20T22:26:44.629Z,100.00
2022-09-20T22:29:11.716Z,100.00
2022-09-20T22:31:47.226Z,100.00
2022-09-20T22:34:16.064Z,100.00
2022-09-20T22:36:42.834Z,100.00
2022-09-20T22:39:11.390Z,100.00
2022-09-20T22:41:39.401Z,100.00
2022-09-20T22:44:06.216Z,100.00
2022-09-20T22:46:33.771Z,100.00
2022-09-20T22:49:00.760Z,100.00
2022-09-20T22:51:30.913Z,100.00
2022-09-20T22:53:57.244Z,100.00
2022-09-20T22:56:25.971Z,100.00
2022-09-20T22:58:55.374Z,100.00
2022-09-20T23:01:24.346Z,100.00
2022-09-20T23:04:19.508Z,100.00
2022-09-20T23:06:48.202Z,100.00
2022-09-20T23:09:17.682Z,100.00
2022-09-20T23:11:45.037Z,100.00
2022-09-20T23:14:14.451Z,100.00
2022-09-20T23:16:41.565Z,100.00
2022-09-20T23:19:09.129Z,100.00
2022-09-20T23:21:38.665Z,100.00
2022-09-20T23:24:07.909Z,100.00
2022-09-20T23:26:36.837Z,100.00
2022-09-20T23:29:08.911Z,100.00
2022-09-20T23:31:37.696Z,100.00
2022-09-20T23:34:06.942Z,100.00
2022-09-20T23:36:37.561Z,100.00
2022-09-20T23:39:05.403Z,100.00
2022-09-20T23:41:32.056Z,100.00
2022-09-20T23:43:58.824Z,100.00
2022-09-20T23:46:26.873Z,100.00
2022-09-20T23:48:53.871Z,100.00
2022-09-20T23:51:23.868Z,100.00
2022-09-20T23:53:51.761Z,100.00
2022-09-20T23:56:19.614Z,100.00
2022-09-20T23:58:46.408Z,100.00
